sensor_id;sensor_type;location;lat;lon;timestamp;P1;durP1;ratioP1;P2;durP2;ratioP2
48891;SDS011;50130;52.150;5.236;2023-04-06T00:00:58;22.9;;;16.11;;
48891;SDS011;50130;52.150;5.236;2023-04-06T00:04:11;22.7;;;16.5;;
48891;SDS011;50130;52.150;5.236;2023-04-06T00:05:47;21.8;;;16.2;;
48891;SDS011;50130;52.150;5.236;2023-04-06T00:07:24;22.9;;;15.9;;
48891;SDS011;50130;52.150;5.236;2023-04-06T00:10:37;23.9;;;16.7;;
48891;SDS011;50130;52.150;5.236;2023-04-06T00:12:13;25.4;;;16.3;;
48891;SDS011;50130;52.150;5.236;2023-04-06T00:13:49;23.0;;;17.2;;
48891;SDS011;50130;52.150;5.236;2023-04-06T00:17:02;22.2;;;17.41;;
48891;SDS011;50130;52.150;5.236;2023-04-06T00:18:38;25.4;;;17.7;;
48891;SDS011;50130;52.150;5.236;2023-04-06T00:20:15;23.0;;;17.91;;
48891;SDS011;50130;52.150;5.236;2023-04-06T00:21:51;26.0;;;19.11;;
48891;SDS011;50130;52.150;5.236;2023-04-06T00:25:04;24.3;;;17.3;;
48891;SDS011;50130;52.150;5.236;2023-04-06T00:26:41;23.0;;;17.8;;
48891;SDS011;50130;52.150;5.236;2023-04-06T00:28:17;25.1;;;18.3;;
48891;SDS011;50130;52.150;5.236;2023-04-06T00:31:29;27.7;;;18.5;;
48891;SDS011;50130;52.150;5.236;2023-04-06T00:33:06;25.8;;;18.8;;
48891;SDS011;50130;52.150;5.236;2023-04-06T00:34:42;23.9;;;18.3;;
48891;SDS011;50130;52.150;5.236;2023-04-06T00:37:54;28.2;;;19.3;;
48891;SDS011;50130;52.150;5.236;2023-04-06T00:39:30;27.1;;;18.8;;
48891;SDS011;50130;52.150;5.236;2023-04-06T00:41:06;23.0;;;18.61;;
48891;SDS011;50130;52.150;5.236;2023-04-06T00:44:19;23.7;;;17.3;;
48891;SDS011;50130;52.150;5.236;2023-04-06T00:45:56;23.0;;;18.0;;
48891;SDS011;50130;52.150;5.236;2023-04-06T00:47:32;23.7;;;17.61;;
48891;SDS011;50130;52.150;5.236;2023-04-06T00:49:09;23.3;;;17.61;;
48891;SDS011;50130;52.150;5.236;2023-04-06T00:52:21;21.2;;;17.2;;
48891;SDS011;50130;52.150;5.236;2023-04-06T00:53:58;22.9;;;17.0;;
48891;SDS011;50130;52.150;5.236;2023-04-06T00:55:34;21.9;;;16.9;;
48891;SDS011;50130;52.150;5.236;2023-04-06T00:58:48;22.9;;;17.11;;
48891;SDS011;50130;52.150;5.236;2023-04-06T01:00:24;23.7;;;18.0;;
48891;SDS011;50130;52.150;5.236;2023-04-06T01:02:00;22.3;;;17.7;;
48891;SDS011;50130;52.150;5.236;2023-04-06T01:05:12;23.5;;;17.61;;
48891;SDS011;50130;52.150;5.236;2023-04-06T01:06:48;23.9;;;18.0;;
48891;SDS011;50130;52.150;5.236;2023-04-06T01:08:24;24.0;;;18.0;;
48891;SDS011;50130;52.150;5.236;2023-04-06T01:10:03;25.7;;;18.41;;
48891;SDS011;50130;52.150;5.236;2023-04-06T01:13:16;23.1;;;17.2;;
48891;SDS011;50130;52.150;5.236;2023-04-06T01:14:52;23.1;;;17.3;;
48891;SDS011;50130;52.150;5.236;2023-04-06T01:16:28;23.4;;;17.61;;
48891;SDS011;50130;52.150;5.236;2023-04-06T01:19:40;25.6;;;18.11;;
48891;SDS011;50130;52.150;5.236;2023-04-06T01:21:17;23.3;;;17.91;;
48891;SDS011;50130;52.150;5.236;2023-04-06T01:22:53;24.4;;;18.5;;
48891;SDS011;50130;52.150;5.236;2023-04-06T01:26:05;23.9;;;18.7;;
48891;SDS011;50130;52.150;5.236;2023-04-06T01:27:41;24.4;;;18.11;;
48891;SDS011;50130;52.150;5.236;2023-04-06T01:29:17;26.6;;;18.2;;
48891;SDS011;50130;52.150;5.236;2023-04-06T01:32:30;23.3;;;17.61;;
48891;SDS011;50130;52.150;5.236;2023-04-06T01:34:06;23.3;;;18.11;;
48891;SDS011;50130;52.150;5.236;2023-04-06T01:35:42;22.9;;;17.5;;
48891;SDS011;50130;52.150;5.236;2023-04-06T01:37:18;22.7;;;17.61;;
48891;SDS011;50130;52.150;5.236;2023-04-06T01:40:30;26.1;;;17.8;;
48891;SDS011;50130;52.150;5.236;2023-04-06T01:42:06;21.0;;;17.41;;
48891;SDS011;50130;52.150;5.236;2023-04-06T01:43:43;21.2;;;17.0;;
48891;SDS011;50130;52.150;5.236;2023-04-06T01:46:55;22.5;;;17.61;;
48891;SDS011;50130;52.150;5.236;2023-04-06T01:48:31;24.1;;;17.8;;
48891;SDS011;50130;52.150;5.236;2023-04-06T01:50:07;24.2;;;17.5;;
48891;SDS011;50130;52.150;5.236;2023-04-06T01:53:19;22.1;;;17.2;;
48891;SDS011;50130;52.150;5.236;2023-04-06T01:54:55;21.9;;;17.2;;
48891;SDS011;50130;52.150;5.236;2023-04-06T01:56:32;21.2;;;16.9;;
48891;SDS011;50130;52.150;5.236;2023-04-06T01:58:08;20.7;;;16.9;;
48891;SDS011;50130;52.150;5.236;2023-04-06T02:01:20;23.4;;;16.9;;
48891;SDS011;50130;52.150;5.236;2023-04-06T02:02:56;23.7;;;16.8;;
48891;SDS011;50130;52.150;5.236;2023-04-06T02:04:32;19.61;;;16.0;;
48891;SDS011;50130;52.150;5.236;2023-04-06T02:07:45;20.9;;;17.0;;
48891;SDS011;50130;52.150;5.236;2023-04-06T02:09:21;19.91;;;15.8;;
48891;SDS011;50130;52.150;5.236;2023-04-06T02:10:57;19.0;;;15.6;;
48891;SDS011;50130;52.150;5.236;2023-04-06T02:14:09;22.1;;;16.0;;
48891;SDS011;50130;52.150;5.236;2023-04-06T02:15:45;21.9;;;16.0;;
48891;SDS011;50130;52.150;5.236;2023-04-06T02:17:21;18.11;;;15.3;;
48891;SDS011;50130;52.150;5.236;2023-04-06T02:20:34;22.0;;;16.5;;
48891;SDS011;50130;52.150;5.236;2023-04-06T02:22:10;21.0;;;15.4;;
48891;SDS011;50130;52.150;5.236;2023-04-06T02:23:46;18.41;;;14.1;;
48891;SDS011;50130;52.150;5.236;2023-04-06T02:25:22;19.0;;;14.5;;
48891;SDS011;50130;52.150;5.236;2023-04-06T02:28:35;19.61;;;14.0;;
48891;SDS011;50130;52.150;5.236;2023-04-06T02:30:12;17.11;;;13.8;;
48891;SDS011;50130;52.150;5.236;2023-04-06T02:31:48;15.7;;;12.7;;
48891;SDS011;50130;52.150;5.236;2023-04-06T02:35:00;17.3;;;13.4;;
48891;SDS011;50130;52.150;5.236;2023-04-06T02:36:37;14.8;;;11.9;;
48891;SDS011;50130;52.150;5.236;2023-04-06T02:38:13;16.61;;;12.1;;
48891;SDS011;50130;52.150;5.236;2023-04-06T02:41:26;15.1;;;12.1;;
48891;SDS011;50130;52.150;5.236;2023-04-06T02:43:02;15.1;;;11.4;;
48891;SDS011;50130;52.150;5.236;2023-04-06T02:44:38;15.1;;;11.4;;
48891;SDS011;50130;52.150;5.236;2023-04-06T02:46:14;14.6;;;12.1;;
48891;SDS011;50130;52.150;5.236;2023-04-06T02:49:26;15.2;;;11.8;;
48891;SDS011;50130;52.150;5.236;2023-04-06T02:51:03;14.8;;;11.2;;
48891;SDS011;50130;52.150;5.236;2023-04-06T02:52:39;15.0;;;10.6;;
48891;SDS011;50130;52.150;5.236;2023-04-06T02:55:51;13.9;;;11.3;;
48891;SDS011;50130;52.150;5.236;2023-04-06T02:57:27;16.5;;;11.8;;
48891;SDS011;50130;52.150;5.236;2023-04-06T02:59:03;13.9;;;11.3;;
48891;SDS011;50130;52.150;5.236;2023-04-06T03:02:16;14.1;;;11.6;;
48891;SDS011;50130;52.150;5.236;2023-04-06T03:03:52;15.5;;;11.2;;
48891;SDS011;50130;52.150;5.236;2023-04-06T03:05:28;14.2;;;11.4;;
48891;SDS011;50130;52.150;5.236;2023-04-06T03:08:40;16.61;;;11.5;;
48891;SDS011;50130;52.150;5.236;2023-04-06T03:10:16;16.3;;;11.7;;
48891;SDS011;50130;52.150;5.236;2023-04-06T03:11:52;17.7;;;11.9;;
48891;SDS011;50130;52.150;5.236;2023-04-06T03:13:28;16.2;;;11.5;;
48891;SDS011;50130;52.150;5.236;2023-04-06T03:16:42;15.9;;;12.1;;
48891;SDS011;50130;52.150;5.236;2023-04-06T03:18:20;16.4;;;12.2;;
48891;SDS011;50130;52.150;5.236;2023-04-06T03:19:57;15.7;;;12.3;;
48891;SDS011;50130;52.150;5.236;2023-04-06T03:23:09;17.7;;;12.5;;
48891;SDS011;50130;52.150;5.236;2023-04-06T03:24:45;17.2;;;12.9;;
48891;SDS011;50130;52.150;5.236;2023-04-06T03:26:22;17.0;;;12.8;;
48891;SDS011;50130;52.150;5.236;2023-04-06T03:29:34;17.0;;;13.1;;
48891;SDS011;50130;52.150;5.236;2023-04-06T03:31:10;18.3;;;13.9;;
48891;SDS011;50130;52.150;5.236;2023-04-06T03:32:46;18.11;;;13.5;;
48891;SDS011;50130;52.150;5.236;2023-04-06T03:34:22;16.4;;;13.1;;
48891;SDS011;50130;52.150;5.236;2023-04-06T03:37:35;17.8;;;13.4;;
48891;SDS011;50130;52.150;5.236;2023-04-06T03:39:11;18.2;;;13.8;;
48891;SDS011;50130;52.150;5.236;2023-04-06T03:40:48;20.0;;;14.3;;
48891;SDS011;50130;52.150;5.236;2023-04-06T03:44:00;18.2;;;14.1;;
48891;SDS011;50130;52.150;5.236;2023-04-06T03:45:36;20.6;;;13.8;;
48891;SDS011;50130;52.150;5.236;2023-04-06T03:47:12;19.2;;;14.3;;
48891;SDS011;50130;52.150;5.236;2023-04-06T03:50:25;19.0;;;14.3;;
48891;SDS011;50130;52.150;5.236;2023-04-06T03:52:01;19.7;;;14.4;;
48891;SDS011;50130;52.150;5.236;2023-04-06T03:53:37;20.11;;;14.8;;
48891;SDS011;50130;52.150;5.236;2023-04-06T03:56:49;18.7;;;14.2;;
48891;SDS011;50130;52.150;5.236;2023-04-06T03:58:25;20.41;;;14.1;;
48891;SDS011;50130;52.150;5.236;2023-04-06T04:00:01;19.3;;;14.2;;
48891;SDS011;50130;52.150;5.236;2023-04-06T04:01:37;17.61;;;14.2;;
48891;SDS011;50130;52.150;5.236;2023-04-06T04:04:49;22.1;;;14.9;;
48891;SDS011;50130;52.150;5.236;2023-04-06T04:06:25;20.41;;;14.5;;
48891;SDS011;50130;52.150;5.236;2023-04-06T04:08:01;20.41;;;15.2;;
48891;SDS011;50130;52.150;5.236;2023-04-06T04:11:14;22.0;;;15.0;;
48891;SDS011;50130;52.150;5.236;2023-04-06T04:12:50;19.5;;;15.2;;
48891;SDS011;50130;52.150;5.236;2023-04-06T04:14:26;18.91;;;15.4;;
48891;SDS011;50130;52.150;5.236;2023-04-06T04:17:39;20.8;;;15.1;;
48891;SDS011;50130;52.150;5.236;2023-04-06T04:19:15;19.5;;;15.1;;
48891;SDS011;50130;52.150;5.236;2023-04-06T04:20:51;21.0;;;16.11;;
48891;SDS011;50130;52.150;5.236;2023-04-06T04:22:27;21.5;;;16.0;;
48891;SDS011;50130;52.150;5.236;2023-04-06T04:25:40;19.11;;;14.7;;
48891;SDS011;50130;52.150;5.236;2023-04-06T04:32:14;22.2;;;15.9;;
48891;SDS011;50130;52.150;5.236;2023-04-06T04:33:50;21.3;;;15.3;;
48891;SDS011;50130;52.150;5.236;2023-04-06T04:35:27;23.5;;;16.4;;
48891;SDS011;50130;52.150;5.236;2023-04-06T04:38:39;20.9;;;16.11;;
48891;SDS011;50130;52.150;5.236;2023-04-06T04:40:15;20.41;;;16.0;;
48891;SDS011;50130;52.150;5.236;2023-04-06T04:41:52;22.3;;;16.4;;
48891;SDS011;50130;52.150;5.236;2023-04-06T04:43:29;20.6;;;15.9;;
48891;SDS011;50130;52.150;5.236;2023-04-06T04:46:41;21.5;;;16.3;;
48891;SDS011;50130;52.150;5.236;2023-04-06T04:48:18;23.9;;;16.7;;
48891;SDS011;50130;52.150;5.236;2023-04-06T04:49:54;23.3;;;16.7;;
48891;SDS011;50130;52.150;5.236;2023-04-06T04:53:06;23.5;;;16.9;;
48891;SDS011;50130;52.150;5.236;2023-04-06T04:54:43;20.6;;;16.4;;
48891;SDS011;50130;52.150;5.236;2023-04-06T04:56:19;23.7;;;16.9;;
48891;SDS011;50130;52.150;5.236;2023-04-06T04:59:32;23.3;;;16.11;;
48891;SDS011;50130;52.150;5.236;2023-04-06T05:01:11;22.9;;;17.11;;
48891;SDS011;50130;52.150;5.236;2023-04-06T05:02:47;21.1;;;16.3;;
48891;SDS011;50130;52.150;5.236;2023-04-06T05:07:36;22.5;;;16.8;;
48891;SDS011;50130;52.150;5.236;2023-04-06T05:09:13;25.1;;;16.9;;
48891;SDS011;50130;52.150;5.236;2023-04-06T05:10:49;22.2;;;16.5;;
48891;SDS011;50130;52.150;5.236;2023-04-06T05:14:02;23.0;;;17.11;;
48891;SDS011;50130;52.150;5.236;2023-04-06T05:15:39;21.2;;;16.5;;
48891;SDS011;50130;52.150;5.236;2023-04-06T05:17:15;22.7;;;16.7;;
48891;SDS011;50130;52.150;5.236;2023-04-06T05:20:28;21.9;;;17.7;;
48891;SDS011;50130;52.150;5.236;2023-04-06T05:22:05;22.1;;;17.41;;
48891;SDS011;50130;52.150;5.236;2023-04-06T05:23:41;22.4;;;17.0;;
48891;SDS011;50130;52.150;5.236;2023-04-06T05:25:18;24.3;;;17.2;;
48891;SDS011;50130;52.150;5.236;2023-04-06T05:28:31;25.3;;;17.5;;
48891;SDS011;50130;52.150;5.236;2023-04-06T05:30:08;24.7;;;18.0;;
48891;SDS011;50130;52.150;5.236;2023-04-06T05:31:45;22.9;;;17.8;;
48891;SDS011;50130;52.150;5.236;2023-04-06T05:36:36;24.2;;;17.8;;
48891;SDS011;50130;52.150;5.236;2023-04-06T05:38:12;25.3;;;17.2;;
48891;SDS011;50130;52.150;5.236;2023-04-06T05:41:24;23.7;;;18.41;;
48891;SDS011;50130;52.150;5.236;2023-04-06T05:43:01;22.6;;;17.91;;
48891;SDS011;50130;52.150;5.236;2023-04-06T05:44:37;23.4;;;17.2;;
48891;SDS011;50130;52.150;5.236;2023-04-06T05:46:14;24.1;;;18.0;;
48891;SDS011;50130;52.150;5.236;2023-04-06T05:49:27;24.9;;;18.11;;
48891;SDS011;50130;52.150;5.236;2023-04-06T05:51:03;23.1;;;18.2;;
48891;SDS011;50130;52.150;5.236;2023-04-06T05:52:40;25.1;;;18.61;;
48891;SDS011;50130;52.150;5.236;2023-04-06T05:55:52;25.9;;;19.0;;
48891;SDS011;50130;52.150;5.236;2023-04-06T05:57:29;24.3;;;18.11;;
48891;SDS011;50130;52.150;5.236;2023-04-06T05:59:06;24.3;;;18.11;;
48891;SDS011;50130;52.150;5.236;2023-04-06T06:02:19;23.0;;;18.41;;
48891;SDS011;50130;52.150;5.236;2023-04-06T06:03:57;24.5;;;19.11;;
48891;SDS011;50130;52.150;5.236;2023-04-06T06:05:33;23.3;;;18.91;;
48891;SDS011;50130;52.150;5.236;2023-04-06T06:07:10;22.1;;;18.8;;
48891;SDS011;50130;52.150;5.236;2023-04-06T06:10:22;23.8;;;19.0;;
48891;SDS011;50130;52.150;5.236;2023-04-06T06:11:59;24.4;;;19.5;;
48891;SDS011;50130;52.150;5.236;2023-04-06T06:13:35;26.3;;;20.11;;
48891;SDS011;50130;52.150;5.236;2023-04-06T06:16:48;27.2;;;19.11;;
48891;SDS011;50130;52.150;5.236;2023-04-06T06:18:24;26.1;;;19.7;;
48891;SDS011;50130;52.150;5.236;2023-04-06T06:20:00;22.7;;;18.91;;
48891;SDS011;50130;52.150;5.236;2023-04-06T06:23:12;25.6;;;20.5;;
48891;SDS011;50130;52.150;5.236;2023-04-06T06:24:50;26.6;;;19.7;;
48891;SDS011;50130;52.150;5.236;2023-04-06T06:26:26;25.9;;;19.41;;
48891;SDS011;50130;52.150;5.236;2023-04-06T06:28:02;26.7;;;19.7;;
48891;SDS011;50130;52.150;5.236;2023-04-06T06:31:14;25.8;;;19.7;;
48891;SDS011;50130;52.150;5.236;2023-04-06T06:32:51;28.6;;;20.6;;
48891;SDS011;50130;52.150;5.236;2023-04-06T06:34:27;25.0;;;19.7;;
48891;SDS011;50130;52.150;5.236;2023-04-06T06:37:40;26.3;;;19.61;;
48891;SDS011;50130;52.150;5.236;2023-04-06T06:39:16;26.4;;;20.11;;
48891;SDS011;50130;52.150;5.236;2023-04-06T06:40:52;25.3;;;19.7;;
48891;SDS011;50130;52.150;5.236;2023-04-06T06:44:04;26.2;;;19.8;;
48891;SDS011;50130;52.150;5.236;2023-04-06T06:45:41;26.2;;;20.2;;
48891;SDS011;50130;52.150;5.236;2023-04-06T06:47:17;25.9;;;20.41;;
48891;SDS011;50130;52.150;5.236;2023-04-06T06:48:54;26.3;;;20.7;;
48891;SDS011;50130;52.150;5.236;2023-04-06T06:52:06;27.8;;;20.8;;
48891;SDS011;50130;52.150;5.236;2023-04-06T06:53:42;27.9;;;20.41;;
48891;SDS011;50130;52.150;5.236;2023-04-06T06:55:18;27.3;;;21.0;;
48891;SDS011;50130;52.150;5.236;2023-04-06T06:58:30;27.3;;;21.0;;
48891;SDS011;50130;52.150;5.236;2023-04-06T07:00:07;28.1;;;21.1;;
48891;SDS011;50130;52.150;5.236;2023-04-06T07:01:45;27.3;;;21.0;;
48891;SDS011;50130;52.150;5.236;2023-04-06T07:04:57;28.9;;;21.5;;
48891;SDS011;50130;52.150;5.236;2023-04-06T07:06:34;27.7;;;21.4;;
48891;SDS011;50130;52.150;5.236;2023-04-06T07:08:11;27.9;;;22.2;;
48891;SDS011;50130;52.150;5.236;2023-04-06T07:09:47;26.1;;;20.7;;
48891;SDS011;50130;52.150;5.236;2023-04-06T07:13:00;28.1;;;21.5;;
48891;SDS011;50130;52.150;5.236;2023-04-06T07:14:36;25.1;;;20.9;;
48891;SDS011;50130;52.150;5.236;2023-04-06T07:16:12;27.2;;;21.6;;
48891;SDS011;50130;52.150;5.236;2023-04-06T07:19:24;28.6;;;22.6;;
48891;SDS011;50130;52.150;5.236;2023-04-06T07:21:00;27.8;;;22.0;;
48891;SDS011;50130;52.150;5.236;2023-04-06T07:22:37;26.1;;;21.4;;
48891;SDS011;50130;52.150;5.236;2023-04-06T07:25:50;26.7;;;21.4;;
48891;SDS011;50130;52.150;5.236;2023-04-06T07:27:26;28.7;;;21.4;;
48891;SDS011;50130;52.150;5.236;2023-04-06T07:29:02;27.0;;;21.9;;
48891;SDS011;50130;52.150;5.236;2023-04-06T07:32:15;28.2;;;22.1;;
48891;SDS011;50130;52.150;5.236;2023-04-06T07:33:51;27.7;;;22.3;;
48891;SDS011;50130;52.150;5.236;2023-04-06T07:35:28;28.7;;;21.9;;
48891;SDS011;50130;52.150;5.236;2023-04-06T07:37:04;30.1;;;22.3;;
48891;SDS011;50130;52.150;5.236;2023-04-06T07:40:16;28.0;;;22.4;;
48891;SDS011;50130;52.150;5.236;2023-04-06T07:41:52;28.3;;;22.1;;
48891;SDS011;50130;52.150;5.236;2023-04-06T07:43:28;28.6;;;22.4;;
48891;SDS011;50130;52.150;5.236;2023-04-06T07:46:42;29.1;;;22.6;;
48891;SDS011;50130;52.150;5.236;2023-04-06T07:48:18;28.5;;;22.3;;
48891;SDS011;50130;52.150;5.236;2023-04-06T07:49:54;29.6;;;22.9;;
48891;SDS011;50130;52.150;5.236;2023-04-06T07:53:06;28.3;;;22.2;;
48891;SDS011;50130;52.150;5.236;2023-04-06T07:54:44;26.6;;;22.4;;
48891;SDS011;50130;52.150;5.236;2023-04-06T07:56:20;27.3;;;23.1;;
48891;SDS011;50130;52.150;5.236;2023-04-06T07:57:56;29.5;;;23.4;;
48891;SDS011;50130;52.150;5.236;2023-04-06T08:01:09;31.1;;;23.9;;
48891;SDS011;50130;52.150;5.236;2023-04-06T08:02:45;28.5;;;22.6;;
48891;SDS011;50130;52.150;5.236;2023-04-06T08:04:21;29.2;;;23.4;;
48891;SDS011;50130;52.150;5.236;2023-04-06T08:07:33;28.5;;;22.9;;
48891;SDS011;50130;52.150;5.236;2023-04-06T08:09:09;31.7;;;23.7;;
48891;SDS011;50130;52.150;5.236;2023-04-06T08:10:45;29.6;;;23.0;;
48891;SDS011;50130;52.150;5.236;2023-04-06T08:13:57;30.7;;;23.9;;
48891;SDS011;50130;52.150;5.236;2023-04-06T08:15:33;29.6;;;23.4;;
48891;SDS011;50130;52.150;5.236;2023-04-06T08:17:09;29.4;;;23.7;;
48891;SDS011;50130;52.150;5.236;2023-04-06T08:20:21;30.5;;;23.8;;
48891;SDS011;50130;52.150;5.236;2023-04-06T08:21:58;30.0;;;24.4;;
48891;SDS011;50130;52.150;5.236;2023-04-06T08:23:34;29.1;;;23.2;;
48891;SDS011;50130;52.150;5.236;2023-04-06T08:25:10;31.0;;;24.2;;
48891;SDS011;50130;52.150;5.236;2023-04-06T08:28:21;30.4;;;24.0;;
48891;SDS011;50130;52.150;5.236;2023-04-06T08:29:57;30.6;;;24.4;;
48891;SDS011;50130;52.150;5.236;2023-04-06T08:31:33;34.6;;;25.7;;
48891;SDS011;50130;52.150;5.236;2023-04-06T08:34:46;34.21;;;26.2;;
48891;SDS011;50130;52.150;5.236;2023-04-06T08:36:22;32.6;;;24.9;;
48891;SDS011;50130;52.150;5.236;2023-04-06T08:37:58;34.5;;;24.8;;
48891;SDS011;50130;52.150;5.236;2023-04-06T08:41:11;32.21;;;24.6;;
48891;SDS011;50130;52.150;5.236;2023-04-06T08:42:49;33.0;;;24.8;;
48891;SDS011;50130;52.150;5.236;2023-04-06T08:44:30;31.7;;;24.8;;
48891;SDS011;50130;52.150;5.236;2023-04-06T08:46:08;31.3;;;24.8;;
48891;SDS011;50130;52.150;5.236;2023-04-06T08:49:22;31.4;;;24.5;;
48891;SDS011;50130;52.150;5.236;2023-04-06T08:50:58;34.81;;;26.0;;
48891;SDS011;50130;52.150;5.236;2023-04-06T08:52:34;31.9;;;24.9;;
48891;SDS011;50130;52.150;5.236;2023-04-06T08:55:48;33.5;;;24.9;;
48891;SDS011;50130;52.150;5.236;2023-04-06T08:57:26;33.5;;;26.0;;
48891;SDS011;50130;52.150;5.236;2023-04-06T08:59:03;33.4;;;25.1;;
48891;SDS011;50130;52.150;5.236;2023-04-06T09:00:40;33.4;;;25.6;;
48891;SDS011;50130;52.150;5.236;2023-04-06T09:03:55;31.9;;;24.7;;
48891;SDS011;50130;52.150;5.236;2023-04-06T09:05:33;33.71;;;25.3;;
48891;SDS011;50130;52.150;5.236;2023-04-06T09:07:10;34.4;;;24.8;;
48891;SDS011;50130;52.150;5.236;2023-04-06T09:10:23;32.8;;;25.5;;
48891;SDS011;50130;52.150;5.236;2023-04-06T09:11:59;34.4;;;24.9;;
48891;SDS011;50130;52.150;5.236;2023-04-06T09:13:44;34.0;;;25.1;;
48891;SDS011;50130;52.150;5.236;2023-04-06T09:15:21;30.6;;;24.5;;
48891;SDS011;50130;52.150;5.236;2023-04-06T09:18:33;33.71;;;25.5;;
48891;SDS011;50130;52.150;5.236;2023-04-06T09:20:10;31.7;;;24.6;;
48891;SDS011;50130;52.150;5.236;2023-04-06T09:21:47;32.9;;;24.7;;
48891;SDS011;50130;52.150;5.236;2023-04-06T09:24:59;32.3;;;24.9;;
48891;SDS011;50130;52.150;5.236;2023-04-06T09:26:44;33.5;;;25.8;;
48891;SDS011;50130;52.150;5.236;2023-04-06T09:28:26;31.5;;;26.0;;
48891;SDS011;50130;52.150;5.236;2023-04-06T09:30:03;31.9;;;24.7;;
48891;SDS011;50130;52.150;5.236;2023-04-06T09:33:21;31.7;;;25.6;;
48891;SDS011;50130;52.150;5.236;2023-04-06T09:35:06;34.5;;;26.1;;
48891;SDS011;50130;52.150;5.236;2023-04-06T09:36:43;38.0;;;26.9;;
48891;SDS011;50130;52.150;5.236;2023-04-06T09:38:19;29.9;;;25.0;;
48891;SDS011;50130;52.150;5.236;2023-04-06T09:41:39;35.4;;;27.1;;
48891;SDS011;50130;52.150;5.236;2023-04-06T09:43:22;34.71;;;27.2;;
48891;SDS011;50130;52.150;5.236;2023-04-06T09:44:59;34.6;;;28.0;;
48891;SDS011;50130;52.150;5.236;2023-04-06T09:48:15;35.1;;;28.7;;
48891;SDS011;50130;52.150;5.236;2023-04-06T09:49:54;39.81;;;31.1;;
48891;SDS011;50130;52.150;5.236;2023-04-06T09:51:35;38.5;;;30.1;;
48891;SDS011;50130;52.150;5.236;2023-04-06T09:53:15;37.1;;;29.2;;
48891;SDS011;50130;52.150;5.236;2023-04-06T09:56:38;39.21;;;31.2;;
48891;SDS011;50130;52.150;5.236;2023-04-06T09:58:21;35.71;;;29.3;;
48891;SDS011;50130;52.150;5.236;2023-04-06T10:00:01;39.0;;;30.7;;
48891;SDS011;50130;52.150;5.236;2023-04-06T10:01:39;38.1;;;29.6;;
48891;SDS011;50130;52.150;5.236;2023-04-06T10:05:05;39.21;;;30.4;;
48891;SDS011;50130;52.150;5.236;2023-04-06T10:06:48;39.5;;;30.1;;
48891;SDS011;50130;52.150;5.236;2023-04-06T10:08:24;37.0;;;28.1;;
48891;SDS011;50130;52.150;5.236;2023-04-06T10:10:03;33.9;;;28.0;;
48891;SDS011;50130;52.150;5.236;2023-04-06T10:13:18;34.71;;;27.4;;
48891;SDS011;50130;52.150;5.236;2023-04-06T10:14:55;34.81;;;26.7;;
48891;SDS011;50130;52.150;5.236;2023-04-06T10:16:32;34.31;;;25.9;;
48891;SDS011;50130;52.150;5.236;2023-04-06T10:18:08;33.5;;;25.2;;
48891;SDS011;50130;52.150;5.236;2023-04-06T10:21:39;33.21;;;24.8;;
48891;SDS011;50130;52.150;5.236;2023-04-06T10:23:22;34.0;;;25.1;;
48891;SDS011;50130;52.150;5.236;2023-04-06T10:25:05;33.71;;;23.4;;
48891;SDS011;50130;52.150;5.236;2023-04-06T10:26:43;28.1;;;21.4;;
48891;SDS011;50130;52.150;5.236;2023-04-06T10:28:33;25.0;;;20.41;;
48891;SDS011;50130;52.150;5.236;2023-04-06T10:31:51;27.4;;;20.9;;
48891;SDS011;50130;52.150;5.236;2023-04-06T10:33:27;23.6;;;18.91;;
48891;SDS011;50130;52.150;5.236;2023-04-06T10:35:05;22.8;;;17.61;;
48891;SDS011;50130;52.150;5.236;2023-04-06T10:38:19;27.5;;;18.2;;
48891;SDS011;50130;52.150;5.236;2023-04-06T10:39:55;20.7;;;16.3;;
48891;SDS011;50130;52.150;5.236;2023-04-06T10:41:32;19.91;;;15.1;;
48891;SDS011;50130;52.150;5.236;2023-04-06T10:44:47;17.61;;;14.3;;
48891;SDS011;50130;52.150;5.236;2023-04-06T10:46:25;18.91;;;14.8;;
48891;SDS011;50130;52.150;5.236;2023-04-06T10:48:20;18.3;;;13.5;;
48891;SDS011;50130;52.150;5.236;2023-04-06T10:49:56;15.9;;;12.2;;
48891;SDS011;50130;52.150;5.236;2023-04-06T10:51:32;13.3;;;11.8;;
48891;SDS011;50130;52.150;5.236;2023-04-06T10:54:58;13.2;;;10.8;;
48891;SDS011;50130;52.150;5.236;2023-04-06T10:56:36;13.6;;;10.8;;
48891;SDS011;50130;52.150;5.236;2023-04-06T10:58:13;14.5;;;11.0;;
48891;SDS011;50130;52.150;5.236;2023-04-06T11:01:28;9.9;;;8.6;;
48891;SDS011;50130;52.150;5.236;2023-04-06T11:03:04;8.1;;;6.6;;
48891;SDS011;50130;52.150;5.236;2023-04-06T11:04:40;8.31;;;6.7;;
48891;SDS011;50130;52.150;5.236;2023-04-06T11:06:18;7.8;;;6.1;;
48891;SDS011;50130;52.150;5.236;2023-04-06T11:09:31;10.3;;;6.8;;
48891;SDS011;50130;52.150;5.236;2023-04-06T11:11:08;8.5;;;6.6;;
48891;SDS011;50130;52.150;5.236;2023-04-06T11:12:45;8.31;;;7.2;;
48891;SDS011;50130;52.150;5.236;2023-04-06T11:16:04;8.81;;;7.5;;
48891;SDS011;50130;52.150;5.236;2023-04-06T11:17:40;8.81;;;7.2;;
48891;SDS011;50130;52.150;5.236;2023-04-06T11:19:16;8.6;;;7.6;;
48891;SDS011;50130;52.150;5.236;2023-04-06T11:20:53;9.0;;;7.5;;
48891;SDS011;50130;52.150;5.236;2023-04-06T11:24:07;9.81;;;7.9;;
48891;SDS011;50130;52.150;5.236;2023-04-06T11:25:49;11.5;;;7.8;;
48891;SDS011;50130;52.150;5.236;2023-04-06T11:27:26;10.8;;;8.81;;
48891;SDS011;50130;52.150;5.236;2023-04-06T11:30:40;12.5;;;8.4;;
48891;SDS011;50130;52.150;5.236;2023-04-06T11:32:20;9.81;;;8.2;;
48891;SDS011;50130;52.150;5.236;2023-04-06T11:33:57;10.21;;;8.6;;
48891;SDS011;50130;52.150;5.236;2023-04-06T11:35:33;12.4;;;9.6;;
48891;SDS011;50130;52.150;5.236;2023-04-06T11:38:47;12.6;;;8.81;;
48891;SDS011;50130;52.150;5.236;2023-04-06T11:40:23;9.71;;;8.71;;
48891;SDS011;50130;52.150;5.236;2023-04-06T11:42:00;10.5;;;8.81;;
48891;SDS011;50130;52.150;5.236;2023-04-06T11:45:14;10.21;;;8.9;;
48891;SDS011;50130;52.150;5.236;2023-04-06T11:46:51;13.5;;;9.5;;
48891;SDS011;50130;52.150;5.236;2023-04-06T11:48:27;9.9;;;8.9;;
48891;SDS011;50130;52.150;5.236;2023-04-06T11:51:43;11.3;;;9.0;;
